Saint Michaels, AZ

12:50 AM MDT on July 14, 2014 (GMT -0600)
Window Rock (KRQE) Elev 6742 ft | 35.66 °N, 109.06 °W | Change Station

Current weather conditions updated 57 minutes ago

Rain
Rain
61 °F
Feels Like 61 °F
N
10
Wind Variable Wind from SE
Gusts 17 mph

Today is forecast to be nearly the same temperature as yesterday. Slight chance of a thunderstorm.

Today
High -- | Low -- °F
--% Chance of Precip.
Yesterday
High -- | Low -- °F
Precip. -- in
6:11 AM 8:32 PM
Waning Gibbous, 95% visible
Pressure 30.04 in
Visibility 7.0 miles
Clouds Few 4600 ft
Scattered Clouds 6500 ft
Overcast 8500 ft
Dew Point 54 °F
Humidity 78%
Rainfall 0.23 in
Snow Depth Not available.
UV 0 out of 12
Pollen 3.30 out of 12
Air Quality Not available.
Flu Activity Local Activity
METAR KRQE 140553Z AUTO 13009G15KT 100V160 7SM RA FEW046 SCT065 OVC085 16/12 A3042 RMK AO2 SLP173 P0002 60002 T01610122 10289 20161 51041 TSNO

More Conditions Fewer Conditions

Pressure 30.04 in
Visibility 7.0 miles
Clouds Few 4600 ft
Scattered Clouds 6500 ft
Overcast 8500 ft
Dew Point 54 °F
Humidity 78%
Rainfall 0.23 in
Snow Depth Not available.
UV 0 out of 12
Pollen 3.30 out of 12
Air Quality Not available.
Flu Activity Local Activity
METAR KRQE 140553Z AUTO 13009G15KT 100V160 7SM RA FEW046 SCT065 OVC085 16/12 A3042 RMK AO2 SLP173 P0002 60002 T01610122 10289 20161 51041 TSNO

More Conditions Fewer Conditions

10-Day Weather Forecast

Almanac

Astronomy

Jul. 14, 2014 Rise Set
Actual Time 6:11 AM MDT 8:32 PM MDT
Civil Twilight 5:42 AM MDT 9:02 PM MDT
Nautical Twilight 5:06 AM MDT 9:38 PM MDT
Astronomical Twilight 4:26 AM MDT 10:17 PM MDT
Moon 10:12 PM MDT 8:51 AM MDT
Length of Visible Light 15h 19m
Length of Day
14h 21m
Tomorrow will be 1m 6s shorter.
Waning Gibbous, 95% of the Moon is Illuminated
Today
Waning Gibbous
Jul 18
Last Quarter
Jul 26
New
Aug 3
First Quarter
Aug 10
Full

Community

WunderPhotos

Upload Photos

1,733,565 photos uploaded!

Nearby

Snow Depth

Station Depth Elevation
Wildcat 0 in 7850 ft
Beaver Head 1 in 7990 ft
Mormon Mountain 0 in 7500 ft
Workman Creek 1 in 6900 ft
Snowslide Canyon 0 in 9730 ft

Earthquake Activity

City Distance Mag. Time & Date
No recent earthquake activity has been reported nearby.
Minimum magnitude displayed is 2.5.

Coastal Water Temperatures

Place Temperature
No Stations Reporting

Nearby Weather Stations

There are no personal weather stations in this area.